createdAt,value
2017-10-29T00:00:48.284Z,99.99
2017-10-29T00:01:48.582Z,99.99
2017-10-29T00:02:48.114Z,99.99
2017-10-29T00:03:48.458Z,99.99
2017-10-29T00:04:47.983Z,99.99
2017-10-29T00:05:47.890Z,99.99
2017-10-29T00:06:48.080Z,99.99
2017-10-29T00:07:48.822Z,99.99
2017-10-29T00:08:47.835Z,99.99
2017-10-29T00:09:48.515Z,99.99
2017-10-29T00:10:47.936Z,99.99
2017-10-29T00:11:48.414Z,99.99
2017-10-29T00:12:47.531Z,99.99
2017-10-29T00:13:47.525Z,99.99
2017-10-29T00:14:47.863Z,99.99
2017-10-29T00:15:48.285Z,99.99
2017-10-29T00:16:48.248Z,99.99
2017-10-29T00:17:47.877Z,99.99
2017-10-29T00:18:48.322Z,99.99
2017-10-29T00:19:48.311Z,99.99
2017-10-29T00:20:48.814Z,99.99
2017-10-29T00:21:48.031Z,99.99
2017-10-29T00:22:48.390Z,99.99
2017-10-29T00:23:47.914Z,99.99
2017-10-29T00:24:48.267Z,99.99
2017-10-29T00:25:48.202Z,99.99
2017-10-29T00:26:48.729Z,99.99
2017-10-29T00:27:48.317Z,99.99
2017-10-29T00:28:47.831Z,99.99
2017-10-29T00:29:48.222Z,99.99
2017-10-29T00:30:47.675Z,99.99
2017-10-29T00:31:47.651Z,99.99
2017-10-29T00:32:48.151Z,99.99
2017-10-29T00:33:48.248Z,99.99
2017-10-29T00:34:47.496Z,99.99
2017-10-29T00:35:47.912Z,99.99
2017-10-29T00:36:48.146Z,99.99
2017-10-29T00:37:48.513Z,99.99
2017-10-29T00:38:47.764Z,99.99
2017-10-29T00:39:48.066Z,99.99
2017-10-29T00:40:48.339Z,99.99
2017-10-29T00:41:48.483Z,99.99
2017-10-29T00:42:47.659Z,99.99
2017-10-29T00:43:47.797Z,99.99
2017-10-29T00:44:48.057Z,99.99
2017-10-29T00:45:47.748Z,99.99
2017-10-29T00:46:47.579Z,99.99
2017-10-29T00:47:47.711Z,99.99
2017-10-29T00:48:47.813Z,99.99
2017-10-29T00:49:48.043Z,99.99
2017-10-29T00:50:48.498Z,99.99
2017-10-29T00:51:47.442Z,99.99
2017-10-29T00:52:47.721Z,99.99
2017-10-29T00:53:47.704Z,99.99
2017-10-29T00:54:47.675Z,99.99
2017-10-29T00:55:48.353Z,99.99
2017-10-29T00:56:48.780Z,99.99
2017-10-29T00:57:47.897Z,99.99
2017-10-29T00:58:48.199Z,99.99
2017-10-29T00:59:48.419Z,99.99
2017-10-29T01:00:48.739Z,99.99
2017-10-29T01:01:48.678Z,99.99
2017-10-29T01:02:47.914Z,99.99
2017-10-29T01:03:47.969Z,99.99
2017-10-29T01:04:47.525Z,99.99
2017-10-29T01:05:47.434Z,99.99
2017-10-29T01:06:47.888Z,99.99
2017-10-29T01:07:47.697Z,99.99
2017-10-29T01:08:47.393Z,99.99
2017-10-29T01:09:47.596Z,99.99
2017-10-29T01:10:47.394Z,99.99
2017-10-29T01:11:48.953Z,99.99
2017-10-29T01:12:47.719Z,99.99
2017-10-29T01:13:48.127Z,99.99
2017-10-29T01:14:48.532Z,99.99
2017-10-29T01:15:48.154Z,99.99
2017-10-29T01:16:48.168Z,99.99
2017-10-29T01:17:48.245Z,99.99
2017-10-29T01:18:48.134Z,99.99
2017-10-29T01:19:48.336Z,99.99
2017-10-29T01:20:48.567Z,99.99
2017-10-29T01:21:47.926Z,99.99
2017-10-29T01:22:48.832Z,99.99
2017-10-29T01:23:48.397Z,99.99
2017-10-29T01:24:48.551Z,99.99
2017-10-29T01:25:47.784Z,99.99
2017-10-29T01:26:47.461Z,99.99
2017-10-29T01:27:47.664Z,99.99
2017-10-29T01:28:48.228Z,99.99
2017-10-29T01:29:48.011Z,99.99
2017-10-29T01:30:47.839Z,99.99
2017-10-29T01:31:47.776Z,99.99
2017-10-29T01:32:47.834Z,99.99
2017-10-29T01:33:47.688Z,99.99
2017-10-29T01:34:47.511Z,99.99
2017-10-29T01:35:47.740Z,99.99
2017-10-29T01:36:47.590Z,99.99
2017-10-29T01:37:48.541Z,99.99
2017-10-29T01:38:47.366Z,99.99
2017-10-29T01:39:49.753Z,99.99
2017-10-29T01:40:48.429Z,99.99
2017-10-29T01:41:48.293Z,99.99
2017-10-29T01:42:48.908Z,99.99
2017-10-29T01:43:48.345Z,99.99
2017-10-29T01:44:49.919Z,99.99
2017-10-29T01:45:47.335Z,99.99
2017-10-29T01:46:48.043Z,99.99
2017-10-29T01:47:48.392Z,99.99
2017-10-29T01:48:48.329Z,99.99
2017-10-29T01:49:49.838Z,99.99
2017-10-29T01:50:47.991Z,99.99
2017-10-29T01:51:48.232Z,99.99
2017-10-29T01:52:48.642Z,99.99
2017-10-29T01:53:47.869Z,99.99
2017-10-29T01:54:48.689Z,99.99
2017-10-29T01:55:47.929Z,99.99
2017-10-29T01:56:47.948Z,99.99
2017-10-29T01:57:48.119Z,99.99
2017-10-29T01:58:48.653Z,99.99
2017-10-29T01:59:49.105Z,99.99
2017-10-29T02:00:48.493Z,99.99
2017-10-29T02:01:48.720Z,99.99
2017-10-29T02:02:48.496Z,99.99
2017-10-29T02:03:48.292Z,99.99
2017-10-29T02:04:48.453Z,99.99
2017-10-29T02:05:48.870Z,99.99
2017-10-29T02:06:48.730Z,99.99
2017-10-29T02:07:50.782Z,99.99
2017-10-29T02:08:49.516Z,99.99
2017-10-29T02:09:47.996Z,99.99
2017-10-29T02:10:48.176Z,99.99
2017-10-29T02:11:47.645Z,99.99
2017-10-29T02:12:47.842Z,99.99
2017-10-29T02:13:47.920Z,99.99
2017-10-29T02:14:48.020Z,99.99
2017-10-29T02:15:48.220Z,99.99
2017-10-29T02:16:48.503Z,99.99
2017-10-29T02:17:48.547Z,99.99
2017-10-29T02:18:47.852Z,99.99
2017-10-29T02:19:48.720Z,99.99
2017-10-29T02:20:47.793Z,99.99
2017-10-29T02:21:47.295Z,99.99
2017-10-29T02:22:48.095Z,99.99
2017-10-29T02:23:48.272Z,99.99
2017-10-29T02:24:48.478Z,99.99
2017-10-29T02:25:47.285Z,99.99
2017-10-29T02:26:48.667Z,99.99
2017-10-29T02:27:47.599Z,99.99
2017-10-29T02:28:47.786Z,99.99
2017-10-29T02:29:47.739Z,99.99
2017-10-29T02:30:47.521Z,99.99
2017-10-29T02:31:47.318Z,99.99
2017-10-29T02:32:49.115Z,99.99
2017-10-29T02:33:48.894Z,99.99
2017-10-29T02:34:48.215Z,99.99
2017-10-29T02:35:48.035Z,99.99
2017-10-29T02:36:47.876Z,99.99
2017-10-29T02:37:47.854Z,99.99
2017-10-29T02:38:47.650Z,99.99
2017-10-29T02:39:47.955Z,99.99
2017-10-29T02:40:47.953Z,99.99
2017-10-29T02:41:48.218Z,99.99
2017-10-29T02:42:48.557Z,99.99
2017-10-29T02:43:48.818Z,99.99
2017-10-29T02:44:47.715Z,99.99
2017-10-29T02:45:48.122Z,99.99
2017-10-29T02:46:48.317Z,99.99
2017-10-29T02:47:48.417Z,99.99
2017-10-29T02:48:48.007Z,99.99
2017-10-29T02:49:47.849Z,99.99
2017-10-29T02:50:47.700Z,99.99
2017-10-29T02:51:47.576Z,99.99
2017-10-29T02:52:48.475Z,99.99
2017-10-29T02:53:49.188Z,99.99
2017-10-29T02:54:48.443Z,99.99
2017-10-29T02:55:47.423Z,99.99
2017-10-29T02:56:47.600Z,99.99
2017-10-29T02:57:48.089Z,99.99
2017-10-29T02:58:48.337Z,99.99
2017-10-29T02:59:48.104Z,99.99
2017-10-29T03:00:48.223Z,99.99
2017-10-29T03:01:48.483Z,99.99
2017-10-29T03:02:47.706Z,99.99
2017-10-29T03:03:48.507Z,99.99
2017-10-29T03:04:47.320Z,99.99
2017-10-29T03:05:48.152Z,99.99
2017-10-29T03:06:48.154Z,99.99
2017-10-29T03:07:48.205Z,99.99
2017-10-29T03:08:48.223Z,99.99
2017-10-29T03:09:48.085Z,99.99
2017-10-29T03:10:47.929Z,99.99
2017-10-29T03:11:47.827Z,99.99
2017-10-29T03:12:47.953Z,99.99
2017-10-29T03:13:48.901Z,99.99
2017-10-29T03:14:48.665Z,99.99
2017-10-29T03:15:48.910Z,99.99
2017-10-29T03:16:49.303Z,99.99
2017-10-29T03:17:48.443Z,99.99
2017-10-29T03:18:49.208Z,99.99
2017-10-29T03:19:49.073Z,99.99
2017-10-29T03:20:48.705Z,99.99
2017-10-29T03:21:50.436Z,99.99
2017-10-29T03:22:49.399Z,99.99
2017-10-29T03:23:48.662Z,99.99
2017-10-29T03:24:49.013Z,99.99
2017-10-29T03:25:49.214Z,99.99
2017-10-29T03:26:48.367Z,99.99
2017-10-29T03:27:49.945Z,99.99
2017-10-29T03:28:48.426Z,99.99
2017-10-29T03:29:49.022Z,99.99
2017-10-29T03:30:49.574Z,99.99
2017-10-29T03:31:47.321Z,99.99
2017-10-29T03:32:48.461Z,99.99
2017-10-29T03:33:49.131Z,99.99
2017-10-29T03:34:48.830Z,99.99
2017-10-29T03:35:50.822Z,99.99
2017-10-29T03:36:48.115Z,99.99
2017-10-29T03:37:49.847Z,99.99
2017-10-29T03:38:50.190Z,99.99
2017-10-29T03:39:59.049Z,99.99
2017-10-29T03:40:57.952Z,99.99
2017-10-29T03:42:07.037Z,99.99
2017-10-29T03:44:02.775Z,99.99
2017-10-29T03:44:52.650Z,99.99
2017-10-29T03:46:00.155Z,99.99
2017-10-29T03:48:09.256Z,99.99
2017-10-29T03:50:17.541Z,99.99
2017-10-29T03:51:18.948Z,99.99
2017-10-29T03:52:15.949Z,99.99
2017-10-29T03:53:18.055Z,99.99
2017-10-29T03:54:18.286Z,99.99
2017-10-29T03:55:16.930Z,99.99
2017-10-29T03:56:18.215Z,99.99
2017-10-29T03:57:16.228Z,99.99
2017-10-29T03:58:18.955Z,99.99
2017-10-29T03:59:17.329Z,99.99
2017-10-29T04:00:16.478Z,99.99
2017-10-29T04:01:16.572Z,99.99
2017-10-29T04:02:15.425Z,99.99
2017-10-29T04:03:19.178Z,99.99
2017-10-29T04:04:18.338Z,99.99
2017-10-29T04:05:17.542Z,99.99
2017-10-29T04:06:17.055Z,99.99
2017-10-29T04:07:16.333Z,99.99
2017-10-29T04:08:18.181Z,99.99
2017-10-29T04:09:19.317Z,99.99
2017-10-29T04:10:19.104Z,99.99
2017-10-29T04:11:18.122Z,99.99
2017-10-29T04:12:17.560Z,99.99
2017-10-29T04:13:17.397Z,99.99
2017-10-29T04:14:17.024Z,99.99
2017-10-29T04:15:19.544Z,99.99
2017-10-29T04:16:18.187Z,99.99
2017-10-29T04:17:21.276Z,99.99
2017-10-29T04:18:16.598Z,99.99
2017-10-29T04:19:17.404Z,99.99
2017-10-29T04:20:17.652Z,99.99
2017-10-29T04:21:24.911Z,99.99
2017-10-29T04:22:18.566Z,99.99
2017-10-29T04:23:16.540Z,99.74
2017-10-29T04:24:16.001Z,99.08
2017-10-29T04:25:15.928Z,99.46
2017-10-29T04:26:31.977Z,99.27
2017-10-29T04:28:18.660Z,98.88
2017-10-29T04:29:17.697Z,98.13
2017-10-29T04:30:15.948Z,97.55
2017-10-29T04:31:16.255Z,96.51
2017-10-29T04:32:16.045Z,95.27
2017-10-29T04:33:16.318Z,94.98
2017-10-29T04:34:15.386Z,95.46
2017-10-29T04:35:16.194Z,93.84
2017-10-29T04:36:16.580Z,93.27
2017-10-29T04:37:16.752Z,94.22
2017-10-29T04:38:16.212Z,93.84
2017-10-29T04:39:16.367Z,94.37
2017-10-29T04:40:16.299Z,94.84
2017-10-29T04:41:16.372Z,94.03
2017-10-29T04:42:16.270Z,94.03
2017-10-29T04:43:16.395Z,94.60
2017-10-29T04:44:16.585Z,93.84
2017-10-29T04:45:15.786Z,93.65
2017-10-29T04:46:15.694Z,94.65
2017-10-29T04:47:16.246Z,94.56
2017-10-29T04:48:16.608Z,94.37
2017-10-29T04:49:16.410Z,93.70
2017-10-29T04:50:16.461Z,93.70
2017-10-29T04:51:15.992Z,93.60
2017-10-29T04:52:15.808Z,92.75
2017-10-29T04:53:15.744Z,92.03
2017-10-29T04:54:16.225Z,92.56
2017-10-29T04:55:16.363Z,92.08
2017-10-29T04:56:16.544Z,91.99
2017-10-29T04:57:16.601Z,91.03
2017-10-29T04:58:16.637Z,90.42
2017-10-29T04:59:16.490Z,90.47
2017-10-29T05:00:15.852Z,91.13
2017-10-29T05:01:16.166Z,91.51
2017-10-29T05:02:16.593Z,91.89
2017-10-29T05:03:16.417Z,91.80
2017-10-29T05:04:17.003Z,91.22
2017-10-29T05:05:16.233Z,89.80
2017-10-29T05:06:16.635Z,89.80
2017-10-29T05:07:15.830Z,89.51
2017-10-29T05:08:16.149Z,90.47
2017-10-29T05:09:16.560Z,89.32
2017-10-29T05:10:16.189Z,89.89
2017-10-29T05:11:16.816Z,89.99
2017-10-29T05:12:15.931Z,89.32
2017-10-29T05:13:16.466Z,88.37
2017-10-29T05:14:16.848Z,87.61
2017-10-29T05:15:15.895Z,87.71
2017-10-29T05:16:16.616Z,87.71
2017-10-29T05:17:15.392Z,88.09
2017-10-29T05:18:16.493Z,87.04
2017-10-29T05:19:16.285Z,86.47
2017-10-29T05:20:16.031Z,86.38
2017-10-29T05:21:16.475Z,85.52
2017-10-29T05:22:16.762Z,84.76
2017-10-29T05:23:15.639Z,84.66
2017-10-29T05:24:15.467Z,84.19
2017-10-29T05:25:16.312Z,84.09
2017-10-29T05:26:17.225Z,84.56
2017-10-29T05:27:16.285Z,84.28
2017-10-29T05:28:16.206Z,84.19
2017-10-29T05:29:15.966Z,84.37
2017-10-29T05:30:16.287Z,83.33
2017-10-29T05:31:16.233Z,83.04
2017-10-29T05:32:16.644Z,83.42
2017-10-29T05:33:15.883Z,83.71
2017-10-29T05:34:15.890Z,83.90
2017-10-29T05:35:16.109Z,83.81
2017-10-29T05:36:15.773Z,83.90
2017-10-29T05:37:15.391Z,83.71
2017-10-29T05:38:16.347Z,84.37
2017-10-29T05:39:16.512Z,85.33
2017-10-29T05:40:16.560Z,86.28
2017-10-29T05:41:15.981Z,85.42
2017-10-29T05:42:15.875Z,85.52
2017-10-29T05:43:16.204Z,85.42
2017-10-29T05:44:15.561Z,85.14
2017-10-29T05:45:16.395Z,84.56
2017-10-29T05:46:16.228Z,84.28
2017-10-29T05:47:16.060Z,84.66
2017-10-29T05:48:16.582Z,84.09
2017-10-29T05:49:15.520Z,83.23
2017-10-29T05:50:16.260Z,84.37
2017-10-29T05:51:16.805Z,83.90
2017-10-29T05:52:15.594Z,83.90
2017-10-29T05:53:15.462Z,85.14
2017-10-29T05:54:17.178Z,84.95
2017-10-29T05:55:15.873Z,83.90
2017-10-29T05:56:16.886Z,84.00
2017-10-29T05:57:16.221Z,84.19
2017-10-29T05:58:16.432Z,83.14
2017-10-29T05:59:16.867Z,83.23
2017-10-29T06:00:16.386Z,83.14
2017-10-29T06:01:15.562Z,83.23
2017-10-29T06:02:16.842Z,82.76
2017-10-29T06:03:16.097Z,82.00
2017-10-29T06:04:16.345Z,82.09
2017-10-29T06:05:16.588Z,82.28
2017-10-29T06:06:16.733Z,83.14
2017-10-29T06:07:16.884Z,83.52
2017-10-29T06:08:16.357Z,82.86
2017-10-29T06:09:16.614Z,83.23
2017-10-29T06:10:15.546Z,82.86
2017-10-29T06:11:16.859Z,82.76
2017-10-29T06:12:15.848Z,82.48
2017-10-29T06:13:16.342Z,82.57
2017-10-29T06:14:16.310Z,83.04
2017-10-29T06:15:16.282Z,83.62
2017-10-29T06:16:15.815Z,83.23
2017-10-29T06:17:17.583Z,83.33
2017-10-29T06:18:16.550Z,83.33
2017-10-29T06:19:15.933Z,83.04
2017-10-29T06:20:15.796Z,83.42
2017-10-29T06:21:16.501Z,82.76
2017-10-29T06:22:16.806Z,82.86
2017-10-29T06:23:16.173Z,83.04
2017-10-29T06:24:16.135Z,83.33
2017-10-29T06:25:16.418Z,83.33
2017-10-29T06:26:16.821Z,82.76
2017-10-29T06:27:16.089Z,83.23
2017-10-29T06:28:16.845Z,83.29
2017-10-29T06:29:16.936Z,83.39
2017-10-29T06:30:16.467Z,83.76
2017-10-29T06:31:16.035Z,83.29
2017-10-29T06:32:17.158Z,82.67
2017-10-29T06:33:16.782Z,82.19
2017-10-29T06:34:17.096Z,83.04
2017-10-29T06:35:15.708Z,82.48
2017-10-29T06:36:15.757Z,83.04
2017-10-29T06:37:15.578Z,82.95
2017-10-29T06:38:16.164Z,83.04
2017-10-29T06:39:16.822Z,83.52
2017-10-29T06:40:15.801Z,82.76
2017-10-29T06:41:16.338Z,82.76
2017-10-29T06:42:16.046Z,82.57
2017-10-29T06:43:16.409Z,82.95
2017-10-29T06:44:17.024Z,82.67
2017-10-29T06:45:16.749Z,82.86
2017-10-29T06:46:16.657Z,83.42
2017-10-29T06:47:16.863Z,83.62
2017-10-29T06:48:17.635Z,83.14
2017-10-29T06:49:16.374Z,82.86
2017-10-29T06:50:16.654Z,82.86
2017-10-29T06:51:16.159Z,83.04
2017-10-29T06:52:16.140Z,82.57
2017-10-29T06:53:16.704Z,82.57
2017-10-29T06:54:16.593Z,82.67
2017-10-29T06:55:16.719Z,82.86
2017-10-29T06:56:16.908Z,82.67
2017-10-29T06:57:16.400Z,82.38
2017-10-29T06:58:16.555Z,82.00
2017-10-29T06:59:15.908Z,81.71
2017-10-29T07:00:17.071Z,82.48
2017-10-29T07:01:16.464Z,82.19
2017-10-29T07:02:16.974Z,82.57
2017-10-29T07:03:17.134Z,82.09
2017-10-29T07:04:16.789Z,81.71
2017-10-29T07:05:15.996Z,82.00
2017-10-29T07:06:16.566Z,82.09
2017-10-29T07:07:15.841Z,82.38
2017-10-29T07:08:16.229Z,82.09
2017-10-29T07:09:16.735Z,82.00
2017-10-29T07:10:15.632Z,82.09
2017-10-29T07:11:15.693Z,82.48
2017-10-29T07:12:15.906Z,82.48
2017-10-29T07:13:16.661Z,82.57
2017-10-29T07:14:17.400Z,82.28
2017-10-29T07:15:16.292Z,82.19
2017-10-29T07:16:15.963Z,82.38
2017-10-29T07:17:16.044Z,82.28
2017-10-29T07:18:16.351Z,82.28
2017-10-29T07:19:15.876Z,82.67
2017-10-29T07:20:15.800Z,82.76
2017-10-29T07:21:16.249Z,82.86
2017-10-29T07:22:16.295Z,83.04
2017-10-29T07:23:16.279Z,83.23
2017-10-29T07:24:16.225Z,83.47
2017-10-29T07:25:16.453Z,82.90
2017-10-29T07:26:16.664Z,82.51
2017-10-29T07:27:16.030Z,82.61
2017-10-29T07:28:16.548Z,82.42
2017-10-29T07:29:16.680Z,82.42
2017-10-29T07:30:15.743Z,82.51
2017-10-29T07:31:16.025Z,82.61
2017-10-29T07:32:16.558Z,82.32
2017-10-29T07:33:15.754Z,82.51
2017-10-29T07:34:16.667Z,82.51
2017-10-29T07:35:16.126Z,82.14
2017-10-29T07:36:16.458Z,81.76
2017-10-29T07:37:16.661Z,81.76
2017-10-29T07:38:17.157Z,81.76
2017-10-29T07:39:16.207Z,81.85
2017-10-29T07:40:15.959Z,81.47
2017-10-29T07:41:16.529Z,81.51
2017-10-29T07:42:16.860Z,80.55
2017-10-29T07:43:16.022Z,80.46
2017-10-29T07:44:16.556Z,80.36
2017-10-29T07:45:16.196Z,80.46
2017-10-29T07:46:16.741Z,81.32
2017-10-29T07:47:16.006Z,83.85
2017-10-29T07:48:16.151Z,84.80
2017-10-29T07:49:17.115Z,85.94
2017-10-29T07:50:16.808Z,86.80
2017-10-29T07:51:16.280Z,87.71
2017-10-29T07:52:16.522Z,88.37
2017-10-29T07:53:16.541Z,87.80
2017-10-29T07:54:16.091Z,87.18
2017-10-29T07:55:16.568Z,86.90
2017-10-29T07:56:17.097Z,85.94
2017-10-29T07:57:15.955Z,85.66
2017-10-29T07:58:15.970Z,85.47
2017-10-29T07:59:16.066Z,85.37
2017-10-29T08:00:16.322Z,84.42
2017-10-29T08:01:16.406Z,84.13
2017-10-29T08:02:16.996Z,84.23
2017-10-29T08:03:15.919Z,83.89
2017-10-29T08:04:17.103Z,83.41
2017-10-29T08:05:16.468Z,82.56
2017-10-29T08:06:16.507Z,82.70
2017-10-29T08:07:15.833Z,83.28
2017-10-29T08:08:16.124Z,83.65
2017-10-29T08:09:16.216Z,82.90
2017-10-29T08:10:16.605Z,82.42
2017-10-29T08:11:15.675Z,82.61
2017-10-29T08:12:15.932Z,82.61
2017-10-29T08:13:16.663Z,82.51
2017-10-29T08:14:16.891Z,82.27
2017-10-29T08:15:16.933Z,81.70
2017-10-29T08:16:17.234Z,81.89
2017-10-29T08:17:16.444Z,81.03
2017-10-29T08:18:17.037Z,80.84
2017-10-29T08:19:16.254Z,80.60
2017-10-29T08:20:16.313Z,80.31
2017-10-29T08:21:17.369Z,80.60
2017-10-29T08:22:16.620Z,80.46
2017-10-29T08:23:17.629Z,80.46
2017-10-29T08:24:16.482Z,80.36
2017-10-29T08:25:17.375Z,80.65
2017-10-29T08:26:16.449Z,80.36
2017-10-29T08:27:16.180Z,79.70
2017-10-29T08:28:16.283Z,79.22
2017-10-29T08:29:16.588Z,79.32
2017-10-29T08:30:17.354Z,79.46
2017-10-29T08:31:19.143Z,79.27
2017-10-29T08:32:16.727Z,78.12
2017-10-29T08:33:15.973Z,77.55
2017-10-29T08:34:16.434Z,76.79
2017-10-29T08:35:16.230Z,76.69
2017-10-29T08:36:16.452Z,75.59
2017-10-29T08:37:16.137Z,75.30
2017-10-29T08:38:17.520Z,74.54
2017-10-29T08:39:15.692Z,74.10
2017-10-29T08:40:16.244Z,73.81
2017-10-29T08:41:16.830Z,73.62
2017-10-29T08:42:15.827Z,74.54
2017-10-29T08:43:16.649Z,75.49
2017-10-29T08:44:16.304Z,76.40
2017-10-29T08:45:18.628Z,76.88
2017-10-29T08:46:16.022Z,76.88
2017-10-29T08:47:16.815Z,76.98
2017-10-29T08:48:23.784Z,76.50
2017-10-29T08:49:16.964Z,76.40
2017-10-29T08:50:16.665Z,75.01
2017-10-29T08:51:16.673Z,74.19
2017-10-29T08:52:16.307Z,72.76
2017-10-29T08:53:16.612Z,71.18
2017-10-29T08:54:17.475Z,71.23
2017-10-29T08:55:17.513Z,71.81
2017-10-29T08:56:16.598Z,72.82
2017-10-29T08:57:16.871Z,73.65
2017-10-29T08:58:16.495Z,75.16
2017-10-29T08:59:17.634Z,76.03
2017-10-29T09:00:15.980Z,76.50
2017-10-29T09:01:16.788Z,76.12
2017-10-29T09:02:16.536Z,75.36
2017-10-29T09:03:16.962Z,75.36
2017-10-29T09:04:16.967Z,74.60
2017-10-29T09:05:16.423Z,74.31
2017-10-29T09:06:16.584Z,74.50
2017-10-29T09:07:16.108Z,74.40
2017-10-29T09:08:16.199Z,72.63
2017-10-29T09:09:17.111Z,68.35
2017-10-29T09:10:16.838Z,65.14
2017-10-29T09:11:16.597Z,62.62
2017-10-29T09:12:16.741Z,60.42
2017-10-29T09:13:16.499Z,58.66
2017-10-29T09:14:16.072Z,59.05
2017-10-29T09:15:17.045Z,61.38
2017-10-29T09:16:16.451Z,63.48
2017-10-29T09:17:17.631Z,62.46
2017-10-29T09:18:16.260Z,60.68
2017-10-29T09:19:16.542Z,58.92
2017-10-29T09:20:17.378Z,57.04
2017-10-29T09:21:17.158Z,56.08
2017-10-29T09:22:17.837Z,56.08
2017-10-29T09:23:16.635Z,55.60
2017-10-29T09:24:15.890Z,55.05
2017-10-29T09:25:17.065Z,53.62
2017-10-29T09:26:16.912Z,55.12
2017-10-29T09:27:17.349Z,55.93
2017-10-29T09:28:16.841Z,58.58
2017-10-29T09:29:16.255Z,59.11
2017-10-29T09:30:17.187Z,57.13
2017-10-29T09:31:16.153Z,55.63
2017-10-29T09:32:17.601Z,53.19
2017-10-29T09:33:16.864Z,52.11
2017-10-29T09:34:16.278Z,51.46
2017-10-29T09:35:18.058Z,50.51
2017-10-29T09:36:16.558Z,51.75
2017-10-29T09:37:16.994Z,51.25
2017-10-29T09:38:16.617Z,52.04
2017-10-29T09:39:17.732Z,50.53
2017-10-29T09:40:16.814Z,49.55
2017-10-29T09:41:16.671Z,51.51
2017-10-29T09:42:15.980Z,53.07
2017-10-29T09:43:16.758Z,51.63
2017-10-29T09:44:16.202Z,50.22
2017-10-29T09:45:16.926Z,51.51
2017-10-29T09:46:17.470Z,51.99
2017-10-29T09:47:17.296Z,54.11
2017-10-29T09:48:17.395Z,57.24
2017-10-29T09:49:17.979Z,57.50
2017-10-29T09:50:17.112Z,58.83
2017-10-29T09:51:17.872Z,60.04
2017-10-29T09:52:16.692Z,61.47
2017-10-29T09:53:17.003Z,61.95
2017-10-29T09:54:16.952Z,61.32
2017-10-29T09:55:16.895Z,60.07
2017-10-29T09:56:17.437Z,60.14
2017-10-29T09:57:17.156Z,60.81
2017-10-29T09:58:18.155Z,60.42
2017-10-29T09:59:19.387Z,60.81
2017-10-29T10:00:16.853Z,60.61
2017-10-29T10:01:16.768Z,61.07
2017-10-29T10:02:16.587Z,61.38
2017-10-29T10:03:16.568Z,59.78
2017-10-29T10:04:16.335Z,60.42
2017-10-29T10:05:17.195Z,61.10
2017-10-29T10:06:17.127Z,61.19
2017-10-29T10:07:17.490Z,61.44
2017-10-29T10:08:17.090Z,62.30
2017-10-29T10:09:16.935Z,59.98
2017-10-29T10:10:16.775Z,59.66
2017-10-29T10:11:16.319Z,60.81
2017-10-29T10:12:17.036Z,62.11
2017-10-29T10:13:16.595Z,63.16
2017-10-29T10:14:17.437Z,64.85
2017-10-29T10:15:18.251Z,66.09
2017-10-29T10:16:16.787Z,66.82
2017-10-29T10:17:17.074Z,67.86
2017-10-29T10:18:16.925Z,69.20
2017-10-29T10:19:17.019Z,71.64
2017-10-29T10:20:16.556Z,72.60
2017-10-29T10:21:17.133Z,72.78
2017-10-29T10:22:17.117Z,74.12
2017-10-29T10:23:16.522Z,73.36
2017-10-29T10:24:16.345Z,72.60
2017-10-29T10:25:16.171Z,72.31
2017-10-29T10:26:16.768Z,72.60
2017-10-29T10:27:17.146Z,72.50
2017-10-29T10:28:17.982Z,72.60
2017-10-29T10:29:17.288Z,72.34
2017-10-29T10:30:18.063Z,71.96
2017-10-29T10:31:16.961Z,71.68
2017-10-29T10:32:17.083Z,70.82
2017-10-29T10:33:19.174Z,71.01
2017-10-29T10:34:18.321Z,71.39
2017-10-29T10:35:17.328Z,71.20
2017-10-29T10:36:51.560Z,70.72
2017-10-29T10:38:19.260Z,70.92
2017-10-29T10:39:21.178Z,71.01
2017-10-29T10:40:20.628Z,70.57
2017-10-29T10:41:21.909Z,69.23
2017-10-29T10:42:18.479Z,67.71
2017-10-29T10:43:18.286Z,65.93
2017-10-29T10:44:17.118Z,64.88
2017-10-29T10:45:20.261Z,63.35
2017-10-29T10:46:18.268Z,63.83
2017-10-29T10:47:21.158Z,63.64
2017-10-29T10:48:19.886Z,63.96
2017-10-29T10:49:21.034Z,60.39
2017-10-29T10:50:18.211Z,60.36
2017-10-29T10:51:16.870Z,59.37
2017-10-29T10:52:16.378Z,57.10
2017-10-29T10:53:18.360Z,55.67
2017-10-29T10:54:19.989Z,56.57
2017-10-29T10:55:19.106Z,56.38
2017-10-29T10:56:17.159Z,57.40
2017-10-29T10:57:17.015Z,59.19
2017-10-29T10:58:16.945Z,58.67
2017-10-29T10:59:18.690Z,56.31
2017-10-29T11:00:21.117Z,56.67
2017-10-29T11:01:21.611Z,58.45
2017-10-29T11:02:17.508Z,59.38
2017-10-29T11:03:17.487Z,61.54
2017-10-29T11:04:18.800Z,63.26
2017-10-29T11:05:19.682Z,64.37
2017-10-29T11:06:18.619Z,65.99
2017-10-29T11:07:17.567Z,69.20
2017-10-29T11:08:24.233Z,73.30
2017-10-29T11:10:18.597Z,83.22
2017-10-29T11:11:18.894Z,86.70
2017-10-29T11:12:22.594Z,88.37
2017-10-29T11:13:19.286Z,89.42
2017-10-29T11:14:19.450Z,90.66
2017-10-29T11:15:18.709Z,91.03
2017-10-29T11:16:21.053Z,91.70
2017-10-29T11:17:19.993Z,92.27
2017-10-29T11:18:18.999Z,92.75
2017-10-29T11:19:17.855Z,91.37
2017-10-29T11:21:15.894Z,91.85
2017-10-29T11:23:23.998Z,92.99
2017-10-29T11:24:26.971Z,92.80
2017-10-29T11:25:33.776Z,91.56
2017-10-29T11:26:26.950Z,89.61
2017-10-29T11:27:24.913Z,88.65
2017-10-29T11:28:27.585Z,83.64
2017-10-29T11:29:26.393Z,78.23
2017-10-29T11:30:26.029Z,75.07
2017-10-29T11:31:28.827Z,72.75
2017-10-29T11:32:23.340Z,69.73
2017-10-29T11:33:24.754Z,68.71
2017-10-29T11:34:24.106Z,66.74
2017-10-29T11:35:23.908Z,65.01
2017-10-29T11:36:23.944Z,64.40
2017-10-29T11:37:23.682Z,61.94
2017-10-29T11:38:23.702Z,63.51
2017-10-29T11:39:24.602Z,61.91
2017-10-29T11:41:08.609Z,62.30
2017-10-29T11:41:55.704Z,62.19
2017-10-29T11:43:00.019Z,58.65
2017-10-29T11:43:58.467Z,62.20
2017-10-29T11:44:57.175Z,67.36
2017-10-29T11:45:57.094Z,70.87
2017-10-29T11:46:57.064Z,73.25
2017-10-29T11:48:12.068Z,75.42
2017-10-29T11:48:55.259Z,76.75
2017-10-29T11:49:56.100Z,77.28
2017-10-29T11:50:55.215Z,78.39
2017-10-29T11:51:56.135Z,78.30
2017-10-29T11:52:56.285Z,77.84
2017-10-29T11:53:56.337Z,75.91
2017-10-29T11:54:56.803Z,72.49
2017-10-29T11:55:55.785Z,74.17
2017-10-29T11:56:55.668Z,72.05
2017-10-29T11:57:55.784Z,73.12
2017-10-29T11:58:55.670Z,75.57
2017-10-29T11:59:55.198Z,76.29
2017-10-29T12:00:56.567Z,78.16
2017-10-29T12:01:55.947Z,76.64
2017-10-29T12:02:56.722Z,77.36
2017-10-29T12:03:55.610Z,78.31
2017-10-29T12:04:59.609Z,79.07
2017-10-29T12:05:55.332Z,80.88
2017-10-29T12:06:57.423Z,82.08
2017-10-29T12:07:55.741Z,84.17
2017-10-29T12:08:55.344Z,85.60
2017-10-29T12:09:56.068Z,84.99
2017-10-29T12:10:55.528Z,86.13
2017-10-29T12:11:57.026Z,87.27
2017-10-29T12:12:56.284Z,88.70
2017-10-29T12:13:56.001Z,89.94
2017-10-29T12:14:55.377Z,90.22
2017-10-29T12:15:56.498Z,88.99
2017-10-29T12:16:55.807Z,88.51
2017-10-29T12:17:58.164Z,88.23
2017-10-29T12:18:58.535Z,88.13
2017-10-29T12:19:56.350Z,87.18
2017-10-29T12:20:57.138Z,86.04
2017-10-29T12:21:55.417Z,84.64
2017-10-29T12:22:56.288Z,80.77
2017-10-29T12:23:55.947Z,77.95
2017-10-29T12:24:59.627Z,75.54
2017-10-29T12:25:57.359Z,74.11
2017-10-29T12:26:59.451Z,71.86
2017-10-29T12:28:02.462Z,70.84
2017-10-29T12:28:55.774Z,69.35
2017-10-29T12:29:56.400Z,67.66
2017-10-29T12:30:55.754Z,66.45
2017-10-29T12:32:09.777Z,64.72
2017-10-29T12:32:55.814Z,64.31
2017-10-29T12:33:56.319Z,64.12
2017-10-29T12:34:55.837Z,64.43
2017-10-29T12:36:01.562Z,65.30
2017-10-29T12:36:56.544Z,68.73
2017-10-29T12:37:57.919Z,71.23
2017-10-29T12:39:00.605Z,73.62
2017-10-29T12:39:56.520Z,72.13
2017-10-29T12:41:06.251Z,73.33
2017-10-29T12:41:55.916Z,74.82
2017-10-29T12:42:55.456Z,74.29
2017-10-29T12:43:58.918Z,72.45
2017-10-29T12:44:56.119Z,69.47
2017-10-29T12:45:57.116Z,67.14
2017-10-29T12:46:57.565Z,64.12
2017-10-29T12:47:55.245Z,63.16
2017-10-29T12:48:56.138Z,62.01
2017-10-29T12:49:55.291Z,63.48
2017-10-29T12:50:56.101Z,64.72
2017-10-29T12:51:55.818Z,67.52
2017-10-29T12:52:56.196Z,69.65
2017-10-29T12:53:55.592Z,72.09
2017-10-29T12:54:55.941Z,74.44
2017-10-29T12:55:55.722Z,73.12
2017-10-29T12:56:56.027Z,69.53
2017-10-29T12:57:55.689Z,68.35
2017-10-29T12:58:55.214Z,64.79
2017-10-29T12:59:55.731Z,61.66
2017-10-29T13:00:55.158Z,60.64
2017-10-29T13:01:55.981Z,59.68